Time;durP1;ratioP1;P1;durP2;ratioP2;P2;SDS_P1;SDS_P2;PMS_P1;PMS_P2;Temp;Humidity;BMP_temperature;BMP_pressure;BME280_temperature;BME280_humidity;BME280_pressure;Samples;Min_cycle;Max_cycle;Signal;HPM_P1;HPM_P2
2022/02/25 00:00:46;;;;;;;0.40;0.30;;;;;;;5.18;79.90;100472.75;5017682;28;20478;-78
2022/02/25 00:03:14;;;;;;;0.40;0.30;;;;;;;5.13;79.71;100474.63;5016920;28;20468;-77
2022/02/25 00:05:41;;;;;;;0.40;0.30;;;;;;;5.21;79.47;100485.63;5015661;28;20555;-77
2022/02/25 00:08:08;;;;;;;0.40;0.30;;;;;;;5.23;79.19;100496.13;5015934;28;20484;-77
2022/02/25 00:10:36;;;;;;;0.40;0.30;;;;;;;5.26;79.29;100495.56;5015396;28;20872;-78
2022/02/25 00:13:03;;;;;;;0.40;0.30;;;;;;;5.25;79.69;100508.19;5016884;28;20514;-78
2022/02/25 00:15:30;;;;;;;0.40;0.20;;;;;;;5.25;79.68;100518.13;5016066;28;20455;-77
2022/02/25 00:17:56;;;;;;;0.40;0.27;;;;;;;5.15;79.86;100524.31;5017252;28;20444;-77
2022/02/25 00:20:23;;;;;;;0.40;0.30;;;;;;;5.25;80.88;100524.31;5016639;28;20444;-78
2022/02/25 00:22:49;;;;;;;0.40;0.30;;;;;;;5.28;80.13;100536.41;5017348;28;20807;-78
2022/02/25 00:25:16;;;;;;;0.40;0.33;;;;;;;5.27;80.67;100535.59;5018056;28;20456;-79
2022/02/25 00:27:45;;;;;;;0.40;0.30;;;;;;;5.36;80.09;100545.78;5017923;28;20483;-78
2022/02/25 00:30:13;;;;;;;0.40;0.30;;;;;;;5.36;79.64;100551.16;5014999;28;20444;-71
2022/02/25 00:32:40;;;;;;;0.40;0.30;;;;;;;5.37;78.89;100544.75;5013766;28;20467;-74
2022/02/25 00:35:07;;;;;;;0.40;0.30;;;;;;;5.41;78.64;100548.50;5013444;28;20942;-72
2022/02/25 00:37:34;;;;;;;0.40;0.30;;;;;;;5.41;78.07;100556.56;5013711;28;20477;-77
2022/02/25 00:40:02;;;;;;;0.40;0.30;;;;;;;5.35;77.81;100571.03;5014243;28;20818;-78
2022/02/25 00:42:28;;;;;;;0.40;0.30;;;;;;;5.34;77.54;100580.97;5014440;28;20455;-77
2022/02/25 00:44:56;;;;;;;0.40;0.30;;;;;;;5.36;77.81;100584.22;5013863;28;20949;-77
2022/02/25 00:47:22;;;;;;;0.40;0.30;;;;;;;5.29;78.25;100578.28;5014078;28;20487;-76
2022/02/25 00:49:49;;;;;;;0.40;0.30;;;;;;;5.28;76.99;100596.28;5014061;28;20457;-76
2022/02/25 00:52:15;;;;;;;0.40;0.30;;;;;;;5.25;77.02;100586.06;5013698;28;20456;-76
2022/02/25 00:54:44;;;;;;;0.40;0.30;;;;;;;5.27;77.15;100594.69;5014701;28;20444;-78
2022/02/25 00:57:10;;;;;;;0.40;0.20;;;;;;;5.22;77.38;100605.41;5015510;28;20498;-77
2022/02/25 00:59:37;;;;;;;0.40;0.30;;;;;;;5.23;76.83;100611.59;5014200;28;20962;-78
2022/02/25 01:02:05;;;;;;;0.40;0.20;;;;;;;5.23;76.71;100608.91;5014863;28;20452;-78
2022/02/25 01:04:31;;;;;;;0.40;0.30;;;;;;;5.23;76.34;100614.28;5014077;28;20463;-77
2022/02/25 01:06:58;;;;;;;0.40;0.30;;;;;;;5.20;77.28;100615.59;5014307;28;20492;-77
2022/02/25 01:09:25;;;;;;;0.40;0.30;;;;;;;5.19;78.46;100627.41;5014987;28;20448;-78
2022/02/25 01:11:52;;;;;;;0.40;0.20;;;;;;;5.19;77.47;100629.28;5014338;28;20961;-78
2022/02/25 01:14:18;;;;;;;0.40;0.30;;;;;;;5.22;79.72;100639.50;5015579;28;20468;-78
2022/02/25 01:16:45;;;;;;;0.40;0.27;;;;;;;5.19;77.89;100631.97;5014937;28;20961;-78
2022/02/25 01:19:13;;;;;;;0.40;0.30;;;;;;;5.18;78.30;100641.91;5015062;28;20452;-77
2022/02/25 01:21:39;;;;;;;0.40;0.30;;;;;;;5.12;79.20;100645.63;5015318;28;20946;-77
2022/02/25 01:24:06;;;;;;;0.40;0.30;;;;;;;5.14;77.30;100640.81;5015413;28;20823;-77
2022/02/25 01:26:33;;;;;;;0.40;0.30;;;;;;;5.22;76.81;100643.00;5014126;28;20534;-77
2022/02/25 01:29:00;;;;;;;0.40;0.20;;;;;;;5.25;76.94;100647.81;5014783;28;20491;-78
2022/02/25 01:31:27;;;;;;;0.40;0.20;;;;;;;5.26;77.35;100649.44;5017259;28;20440;-78
2022/02/25 01:33:53;;;;;;;0.40;0.30;;;;;;;5.21;77.12;100662.84;5018197;28;20969;-78
2022/02/25 01:36:21;;;;;;;0.40;0.30;;;;;;;5.21;78.66;100657.47;5020228;28;20447;-78
2022/02/25 01:38:47;;;;;;;0.40;0.27;;;;;;;5.22;78.31;100652.91;5019669;28;20435;-78
2022/02/25 01:41:14;;;;;;;0.40;0.30;;;;;;;5.27;78.44;100656.44;5020051;28;20447;-78
2022/02/25 01:43:40;;;;;;;0.40;0.30;;;;;;;5.26;77.90;100665.53;5020774;28;20470;-78
2022/02/25 01:46:07;;;;;;;0.40;0.30;;;;;;;5.28;78.56;100663.41;5021571;28;20450;-78
2022/02/25 01:48:33;;;;;;;0.40;0.30;;;;;;;5.29;78.61;100670.41;5020671;28;21000;-78
2022/02/25 01:51:00;;;;;;;0.40;0.30;;;;;;;5.29;79.11;100675.78;5020319;28;20460;-78
2022/02/25 01:53:28;;;;;;;0.40;0.30;;;;;;;5.27;79.34;100672.56;5020821;28;20475;-78
2022/02/25 01:55:54;;;;;;;0.40;0.30;;;;;;;5.29;78.16;100672.28;5020781;28;20458;-78
2022/02/25 01:58:24;;;;;;;0.40;0.30;;;;;;;5.27;78.51;100671.75;5020942;28;20444;-78
2022/02/25 02:00:51;;;;;;;0.40;0.23;;;;;;;5.25;79.28;100682.75;5020124;28;20510;-78
2022/02/25 02:03:17;;;;;;;0.40;0.30;;;;;;;5.24;80.00;100683.00;5022014;28;20818;-76
2022/02/25 02:05:44;;;;;;;0.40;0.30;;;;;;;5.22;80.31;100685.13;5016357;28;21076;-77
2022/02/25 02:08:10;;;;;;;0.40;0.30;;;;;;;5.19;79.38;100686.50;5016345;28;21029;-77
2022/02/25 02:10:38;;;;;;;0.40;0.30;;;;;;;5.20;80.47;100690.78;5017016;28;20444;-77
2022/02/25 02:13:04;;;;;;;0.40;0.23;;;;;;;5.23;80.27;100689.47;5016461;28;21002;-77
2022/02/25 02:15:31;;;;;;;0.40;0.20;;;;;;;5.21;78.72;100696.94;5017081;28;20448;-77
2022/02/25 02:17:57;;;;;;;0.40;0.30;;;;;;;5.17;80.12;100693.97;5016550;28;20464;-77
2022/02/25 02:20:24;;;;;;;0.40;0.30;;;;;;;5.11;80.56;100695.03;5016592;28;20844;-77
2022/02/25 02:22:52;;;;;;;0.40;0.20;;;;;;;5.12;79.43;100696.66;5016282;28;21016;-76
2022/02/25 02:25:18;;;;;;;0.40;0.30;;;;;;;5.11;79.86;100699.59;5016303;28;20440;-75
2022/02/25 02:30:29;;;;;;;0.40;0.30;;;;;;;4.93;81.81;100698.97;5016787;28;20407;-77
2022/02/25 02:32:55;;;;;;;0.40;0.30;;;;;;;4.93;81.75;100708.91;5016844;28;20471;-77
2022/02/25 02:35:21;;;;;;;0.40;0.30;;;;;;;4.94;82.62;100721.25;5017299;28;20448;-77
2022/02/25 02:37:48;;;;;;;0.40;0.30;;;;;;;4.82;81.44;100713.41;5017093;28;20436;-77
2022/02/25 02:40:16;;;;;;;0.40;0.20;;;;;;;4.80;81.80;100716.34;5017271;28;20995;-77
2022/02/25 02:42:42;;;;;;;0.40;0.30;;;;;;;4.73;82.35;100721.13;5015750;28;20515;-76
2022/02/25 02:45:10;;;;;;;0.40;0.30;;;;;;;4.68;82.61;100726.44;5016083;28;20499;-77
2022/02/25 02:47:37;;;;;;;0.40;0.30;;;;;;;4.70;81.58;100735.06;5016793;28;20495;-77
2022/02/25 02:50:05;;;;;;;0.40;0.20;;;;;;;4.66;83.07;100736.66;5016234;28;20443;-77
2022/02/25 02:52:31;;;;;;;0.40;0.30;;;;;;;4.63;82.73;100731.78;5015982;28;20483;-77
2022/02/25 02:54:58;;;;;;;0.40;0.30;;;;;;;4.59;83.15;100733.38;5016928;28;20815;-77
2022/02/25 02:57:25;;;;;;;0.40;0.30;;;;;;;4.58;83.31;100731.75;5016132;28;20835;-77
2022/02/25 02:59:52;;;;;;;0.40;0.30;;;;;;;4.51;82.98;100737.31;5015385;28;20920;-77
2022/02/25 03:02:18;;;;;;;0.40;0.30;;;;;;;4.52;83.33;100738.97;5016477;28;20459;-77
2022/02/25 03:04:45;;;;;;;0.40;0.30;;;;;;;4.55;83.22;100751.03;5017747;28;20444;-78
2022/02/25 03:07:12;;;;;;;0.40;0.30;;;;;;;4.57;83.90;100748.13;5017948;28;20451;-77
2022/02/25 03:09:39;;;;;;;0.40;0.20;;;;;;;4.60;82.97;100748.38;5017365;28;20450;-77
2022/02/25 03:12:07;;;;;;;0.40;0.30;;;;;;;4.63;82.96;100745.22;5018068;28;20444;-78
2022/02/25 03:14:36;;;;;;;0.40;0.30;;;;;;;4.64;82.70;100752.19;5016751;28;20472;-78
2022/02/25 03:17:02;;;;;;;0.40;0.20;;;;;;;4.64;82.36;100752.19;5017308;28;20534;-77
2022/02/25 03:19:29;;;;;;;0.40;0.30;;;;;;;4.51;83.14;100756.09;5016935;28;20980;-77
2022/02/25 03:21:55;;;;;;;0.40;0.30;;;;;;;4.44;84.64;100757.41;5016960;28;20443;-77
2022/02/25 03:24:22;;;;;;;0.40;0.30;;;;;;;4.42;84.52;100760.31;5015995;28;20981;-78
2022/02/25 03:26:48;;;;;;;0.40;0.30;;;;;;;4.44;84.11;100765.44;5016788;28;20456;-77
2022/02/25 03:29:15;;;;;;;0.40;0.30;;;;;;;4.44;83.83;100765.44;5016089;28;20484;-78
2022/02/25 03:31:42;;;;;;;0.40;0.30;;;;;;;4.40;84.32;100757.09;5016772;28;20455;-78
2022/02/25 03:34:09;;;;;;;0.40;0.20;;;;;;;4.39;83.90;100774.25;5015769;28;20462;-76
2022/02/25 03:36:35;;;;;;;0.40;0.30;;;;;;;4.37;84.69;100775.56;5015343;28;20441;-76
2022/02/25 03:39:02;;;;;;;0.40;0.30;;;;;;;4.28;85.23;100778.72;5014951;28;20448;-76
2022/02/25 03:41:28;;;;;;;0.40;0.30;;;;;;;4.24;85.35;100780.28;5015469;28;20490;-77
2022/02/25 03:43:55;;;;;;;0.40;0.30;;;;;;;4.24;85.40;100785.63;5015270;28;20463;-77
2022/02/25 03:46:21;;;;;;;0.40;0.30;;;;;;;4.19;85.97;100793.63;5015138;28;20448;-77
2022/02/25 03:48:50;;;;;;;0.40;0.30;;;;;;;4.23;85.66;100793.94;5015638;28;20538;-77
2022/02/25 03:51:17;;;;;;;0.40;0.30;;;;;;;4.19;85.05;100790.97;5015334;28;20996;-77
2022/02/25 03:53:44;;;;;;;0.40;0.30;;;;;;;4.18;84.99;100789.34;5014270;28;20583;-77
2022/02/25 03:56:10;;;;;;;0.40;0.30;;;;;;;4.15;85.95;100789.84;5014817;28;20440;-77
2022/02/25 03:58:37;;;;;;;0.40;0.30;;;;;;;4.15;86.18;100799.75;5015096;28;20437;-77
2022/02/25 04:01:03;;;;;;;0.40;0.20;;;;;;;4.14;86.23;100800.81;5014723;28;20557;-77
2022/02/25 04:03:30;;;;;;;0.40;0.20;;;;;;;4.09;85.97;100806.13;5014599;28;20538;-77
2022/02/25 04:05:58;;;;;;;0.40;0.30;;;;;;;4.03;86.14;100807.97;5014835;28;20448;-78
2022/02/25 04:08:24;;;;;;;0.40;0.30;;;;;;;4.07;86.82;100817.09;5014657;28;20495;-77
2022/02/25 04:10:50;;;;;;;0.40;0.30;;;;;;;4.10;85.93;100813.13;5014430;28;20471;-77
2022/02/25 04:13:17;;;;;;;0.40;0.30;;;;;;;4.01;86.76;100821.59;5013715;28;20978;-75
2022/02/25 04:15:44;;;;;;;0.40;0.27;;;;;;;3.95;87.86;100821.81;5013927;28;20439;-75
2022/02/25 04:18:10;;;;;;;0.40;0.30;;;;;;;3.92;87.24;100827.66;5013694;28;20934;-75
2022/02/25 04:20:37;;;;;;;0.40;0.30;;;;;;;3.91;87.49;100832.22;5014163;28;20482;-75
2022/02/25 04:23:05;;;;;;;0.40;0.27;;;;;;;3.95;86.88;100835.22;5013830;28;20464;-75
2022/02/25 04:25:32;;;;;;;0.40;0.30;;;;;;;3.94;87.19;100846.97;5013993;28;20455;-75
2022/02/25 04:27:58;;;;;;;0.40;0.30;;;;;;;3.92;88.47;100841.06;5014074;28;20491;-76
2022/02/25 04:30:26;;;;;;;0.40;0.30;;;;;;;3.92;87.30;100855.25;5013981;28;20448;-75
2022/02/25 04:32:52;;;;;;;0.40;0.30;;;;;;;3.93;86.82;100850.72;5013790;28;20472;-75
2022/02/25 04:35:20;;;;;;;0.40;0.30;;;;;;;3.85;88.13;100867.22;5013760;28;20444;-76
2022/02/25 04:37:46;;;;;;;0.40;0.30;;;;;;;3.85;87.93;100851.13;5013725;28;20463;-75
2022/02/25 04:40:14;;;;;;;0.40;0.30;;;;;;;3.88;87.82;100853.34;5013671;28;20494;-75
2022/02/25 04:42:41;;;;;;;0.40;0.30;;;;;;;3.87;87.04;100857.06;5013708;28;20471;-75
2022/02/25 04:45:08;;;;;;;0.40;0.30;;;;;;;3.85;87.08;100859.19;5013338;28;20790;-75
2022/02/25 04:47:35;;;;;;;0.40;0.30;;;;;;;3.86;87.44;100860.81;5013053;28;20953;-76
2022/02/25 04:50:02;;;;;;;0.40;0.30;;;;;;;3.87;87.47;100865.13;5013541;28;20492;-76
2022/02/25 04:52:28;;;;;;;0.40;0.30;;;;;;;3.90;87.01;100865.44;5013341;28;20448;-75
2022/02/25 04:54:54;;;;;;;0.40;0.30;;;;;;;3.89;87.44;100863.78;5013392;28;20448;-73
2022/02/25 04:57:22;;;;;;;0.40;0.30;;;;;;;3.83;88.28;100874.72;5013443;28;20447;-73
2022/02/25 04:59:49;;;;;;;0.50;0.50;;;;;;;3.80;87.51;100871.44;5013385;28;20462;-75
2022/02/25 05:02:15;;;;;;;0.40;0.30;;;;;;;3.79;88.31;100867.16;5012822;28;20976;-77
2022/02/25 05:04:42;;;;;;;0.40;0.30;;;;;;;3.84;87.57;100871.75;5013686;28;20498;-77
2022/02/25 05:07:08;;;;;;;0.40;0.30;;;;;;;3.80;88.28;100882.16;5014999;28;20455;-77
2022/02/25 05:09:35;;;;;;;0.40;0.27;;;;;;;3.82;88.07;100881.13;5014679;28;20488;-78
2022/02/25 05:12:01;;;;;;;0.40;0.30;;;;;;;3.88;87.37;100890.84;5014844;28;20863;-77
2022/02/25 05:22:41;;;;;;;0.40;0.30;;;;;;;3.82;86.88;100898.00;5013546;28;20510;-77
2022/02/25 05:25:08;;;;;;;0.40;0.30;;;;;;;3.78;87.11;100897.69;5013127;28;20436;-77
2022/02/25 05:27:35;;;;;;;0.40;0.20;;;;;;;3.78;87.10;100894.22;5013250;28;20460;-77
2022/02/25 05:30:03;;;;;;;0.40;0.30;;;;;;;3.78;87.94;100902.25;5013082;28;20487;-77
2022/02/25 05:32:30;;;;;;;0.40;0.30;;;;;;;3.77;87.64;100904.13;5013300;28;20447;-77
2022/02/25 05:34:56;;;;;;;0.40;0.30;;;;;;;3.72;87.32;100906.72;5013685;28;20443;-78
2022/02/25 05:37:23;;;;;;;0.40;0.30;;;;;;;3.71;87.58;100923.03;5014070;28;20451;-77
2022/02/25 05:39:50;;;;;;;0.40;0.20;;;;;;;3.73;87.64;100916.38;5012864;28;20448;-70
2022/02/25 05:42:16;;;;;;;0.40;0.30;;;;;;;3.70;86.94;100919.53;5012688;28;20792;-71
2022/02/25 05:44:43;;;;;;;0.40;0.30;;;;;;;3.65;87.20;100919.47;5013967;28;20502;-71
2022/02/25 05:47:13;;;;;;;0.40;0.30;;;;;;;3.64;87.57;100927.78;5013056;28;20479;-70
2022/02/25 05:49:40;;;;;;;0.40;0.30;;;;;;;3.61;87.66;100933.59;5013063;28;20487;-74
2022/02/25 05:52:06;;;;;;;0.40;0.30;;;;;;;3.56;87.87;100926.31;5013131;28;20949;-74
2022/02/25 05:54:33;;;;;;;0.40;0.27;;;;;;;3.54;88.15;100939.13;5013091;28;20522;-74
2022/02/25 05:56:59;;;;;;;0.40;0.30;;;;;;;3.53;88.65;100940.19;5012815;28;20506;-74
2022/02/25 05:59:26;;;;;;;0.40;0.30;;;;;;;3.49;88.97;100952.44;5012973;28;20436;-70
2022/02/25 06:01:52;;;;;;;0.40;0.30;;;;;;;3.48;88.34;100940.91;5012358;28;20546;-71
2022/02/25 06:04:20;;;;;;;0.40;0.30;;;;;;;3.42;87.99;100943.78;5012752;28;20471;-71
2022/02/25 06:06:46;;;;;;;0.40;0.30;;;;;;;3.44;87.81;100944.34;5012460;28;20451;-70
2022/02/25 06:09:13;;;;;;;0.40;0.30;;;;;;;3.41;87.63;100952.84;5013112;28;20488;-71
2022/02/25 06:11:39;;;;;;;0.40;0.30;;;;;;;3.40;88.05;100943.19;5012515;28;20455;-71
2022/02/25 06:14:06;;;;;;;0.40;0.30;;;;;;;3.39;88.64;100947.75;5012485;28;20477;-71
2022/02/25 06:16:32;;;;;;;0.40;0.30;;;;;;;3.42;88.14;100954.50;5013092;28;20444;-71
2022/02/25 06:18:59;;;;;;;0.40;0.30;;;;;;;3.44;87.94;100953.19;5016470;28;20447;-71
2022/02/25 06:21:27;;;;;;;0.40;0.30;;;;;;;3.46;88.28;100956.44;5016207;28;20996;-70
2022/02/25 06:23:53;;;;;;;0.40;0.30;;;;;;;3.50;87.86;100960.25;5016296;28;20993;-76
2022/02/25 06:26:20;;;;;;;0.40;0.30;;;;;;;3.52;88.30;100968.84;5016350;28;20502;-76
2022/02/25 06:28:47;;;;;;;0.40;0.30;;;;;;;3.62;88.33;100964.69;5016084;28;20496;-76
2022/02/25 06:31:13;;;;;;;0.40;0.30;;;;;;;3.70;87.77;100961.59;5016327;28;20448;-76
2022/02/25 06:33:40;;;;;;;0.40;0.30;;;;;;;3.71;87.72;100965.88;5016169;28;20471;-74
2022/02/25 06:36:06;;;;;;;0.40;0.30;;;;;;;3.78;86.32;100962.00;5015917;28;20439;-72
2022/02/25 06:38:34;;;;;;;0.40;0.30;;;;;;;3.83;86.84;100963.13;5015947;28;20440;-72
2022/02/25 06:41:01;;;;;;;0.40;0.30;;;;;;;3.88;86.32;100965.88;5016159;28;20822;-72
2022/02/25 06:43:27;;;;;;;0.40;0.30;;;;;;;3.89;86.86;100970.97;5016008;28;20522;-71
2022/02/25 06:45:53;;;;;;;0.40;0.30;;;;;;;3.93;86.57;100973.97;5016228;28;20448;-73
2022/02/25 06:48:20;;;;;;;0.40;0.30;;;;;;;4.00;86.19;100985.34;5015978;28;20444;-73
2022/02/25 06:50:47;;;;;;;0.40;0.30;;;;;;;4.01;84.93;100981.59;5015805;28;20825;-72
2022/02/25 06:53:13;;;;;;;0.40;0.30;;;;;;;4.03;85.14;100979.50;5015696;28;20502;-72
2022/02/25 06:55:42;;;;;;;0.40;0.30;;;;;;;4.04;84.51;100987.28;5015658;28;20455;-72
2022/02/25 06:58:09;;;;;;;0.40;0.30;;;;;;;4.13;83.94;100987.66;5015638;28;20475;-71
2022/02/25 07:00:37;;;;;;;0.40;0.30;;;;;;;4.14;84.06;100986.59;5015166;28;20436;-71
2022/02/25 07:03:04;;;;;;;0.40;0.30;;;;;;;4.18;84.47;100995.75;5015060;28;21012;-71
2022/02/25 07:05:32;;;;;;;0.40;0.30;;;;;;;4.22;83.87;100996.91;5015409;28;20456;-71
2022/02/25 07:07:59;;;;;;;0.40;0.30;;;;;;;4.24;84.03;100991.28;5015730;28;20491;-73
2022/02/25 07:10:26;;;;;;;0.40;0.30;;;;;;;4.29;83.12;101010.09;5015172;28;20559;-72
2022/02/25 07:12:54;;;;;;;0.40;0.20;;;;;;;4.34;82.72;101007.50;5015343;28;20470;-71
2022/02/25 07:15:21;;;;;;;0.40;0.30;;;;;;;4.40;82.30;101011.06;5015001;28;20450;-72
2022/02/25 07:17:47;;;;;;;0.40;0.30;;;;;;;4.42;84.46;101011.59;5015369;28;20456;-73
2022/02/25 07:20:14;;;;;;;0.40;0.30;;;;;;;4.44;81.53;101015.66;5015311;28;20455;-73
2022/02/25 07:22:41;;;;;;;0.40;0.30;;;;;;;4.50;82.06;101017.34;5015104;28;20464;-72
2022/02/25 07:25:08;;;;;;;0.40;0.30;;;;;;;4.57;81.65;101016.38;5015157;28;20498;-72
2022/02/25 07:27:34;;;;;;;2.40;1.83;;;;;;;4.60;80.55;101013.97;5015059;28;20455;-72
2022/02/25 07:30:02;;;;;;;0.40;0.30;;;;;;;4.62;81.42;101014.53;5015058;28;20495;-72
2022/02/25 07:32:30;;;;;;;0.40;0.30;;;;;;;4.62;79.17;101016.41;5014652;28;20443;-72
2022/02/25 07:34:56;;;;;;;11.53;5.20;;;;;;;4.53;80.14;101021.41;5014592;28;20460;-72
2022/02/25 07:37:23;;;;;;;0.40;0.30;;;;;;;4.57;79.53;101017.16;5014908;28;20825;-72
2022/02/25 07:39:49;;;;;;;0.40;0.20;;;;;;;4.52;78.71;101015.25;5014823;28;20539;-72
2022/02/25 07:42:16;;;;;;;0.40;0.30;;;;;;;4.53;79.11;101018.72;5014469;28;21000;-72
2022/02/25 07:44:42;;;;;;;0.40;0.30;;;;;;;4.48;79.13;101024.03;5014624;28;20490;-73
2022/02/25 07:47:10;;;;;;;0.40;0.30;;;;;;;4.45;79.25;101013.78;5014902;28;20819;-74
2022/02/25 07:49:36;;;;;;;0.40;0.30;;;;;;;4.44;78.39;101025.59;5014689;28;20484;-74
2022/02/25 07:52:04;;;;;;;0.40;0.30;;;;;;;4.43;78.64;101024.78;5014668;28;20451;-74
2022/02/25 07:54:32;;;;;;;0.40;0.30;;;;;;;4.45;79.19;101040.63;5014739;28;20537;-73
2022/02/25 07:56:58;;;;;;;0.40;0.30;;;;;;;4.50;78.43;101040.69;5014458;28;20996;-74
2022/02/25 07:59:25;;;;;;;0.40;0.30;;;;;;;4.57;78.39;101040.50;5014647;28;20444;-72
2022/02/25 08:01:51;;;;;;;0.40;0.20;;;;;;;4.62;77.99;101045.94;5014180;28;20456;-72
2022/02/25 08:04:19;;;;;;;0.40;0.30;;;;;;;4.71;76.97;101044.44;5014551;28;20467;-72
2022/02/25 08:06:46;;;;;;;0.40;0.30;;;;;;;4.74;77.31;101049.31;5014469;28;20439;-72
2022/02/25 08:09:13;;;;;;;0.40;0.30;;;;;;;4.79;77.36;101046.69;5014456;28;20579;-72
2022/02/25 08:11:43;;;;;;;0.40;0.30;;;;;;;4.88;75.94;101049.72;5014517;28;20454;-72
2022/02/25 08:14:10;;;;;;;0.40;0.20;;;;;;;4.95;75.80;101069.13;5014383;28;20539;-72
2022/02/25 08:16:37;;;;;;;0.40;0.30;;;;;;;4.97;75.36;101059.75;5014508;28;20440;-72
2022/02/25 08:19:03;;;;;;;0.40;0.27;;;;;;;5.00;76.08;101063.78;5014515;28;20882;-72
2022/02/25 08:21:31;;;;;;;0.40;0.30;;;;;;;5.10;74.72;101071.97;5014075;28;20448;-72
2022/02/25 08:23:58;;;;;;;0.40;0.20;;;;;;;5.14;74.70;101072.28;5013881;28;20474;-72
2022/02/25 08:26:24;;;;;;;0.40;0.30;;;;;;;5.18;74.80;101068.00;5014276;28;20820;-72
2022/02/25 08:28:52;;;;;;;0.40;0.30;;;;;;;5.26;74.11;101073.75;5014166;28;20440;-73
2022/02/25 08:31:18;;;;;;;0.40;0.20;;;;;;;5.34;73.51;101079.72;5014060;28;20458;-72
2022/02/25 08:33:45;;;;;;;0.40;0.30;;;;;;;5.39;72.96;101066.34;5013986;28;20495;-72
2022/02/25 08:36:11;;;;;;;0.40;0.30;;;;;;;5.42;73.07;101082.78;5014010;28;20444;-72
2022/02/25 08:38:39;;;;;;;0.40;0.30;;;;;;;5.48;71.46;101073.69;5013826;28;20450;-71
2022/02/25 08:41:06;;;;;;;0.40;0.30;;;;;;;5.46;72.83;101067.78;5013243;28;20447;-73
2022/02/25 08:43:33;;;;;;;0.40;0.30;;;;;;;5.53;72.03;101072.91;5013546;28;20468;-71
2022/02/25 08:46:00;;;;;;;0.40;0.30;;;;;;;5.61;70.94;101075.16;5013808;28;20446;-72
2022/02/25 08:48:27;;;;;;;0.40;0.30;;;;;;;5.65;70.53;101070.88;5013713;28;20515;-71
2022/02/25 08:50:54;;;;;;;0.40;0.20;;;;;;;5.66;72.19;101067.13;5013335;28;21005;-71
2022/02/25 08:53:21;;;;;;;0.40;0.30;;;;;;;5.69;71.76;101077.38;5013376;28;20472;-75
2022/02/25 08:55:50;;;;;;;0.40;0.20;;;;;;;5.77;70.71;101084.16;5013505;28;20447;-75
2022/02/25 08:58:16;;;;;;;0.40;0.30;;;;;;;5.82;70.33;101082.31;5013374;28;20518;-74
2022/02/25 09:00:43;;;;;;;0.40;0.20;;;;;;;5.89;70.31;101084.81;5013376;28;20458;-74
2022/02/25 09:03:09;;;;;;;0.40;0.23;;;;;;;5.93;71.35;101071.66;5013564;28;20472;-74
2022/02/25 09:05:36;;;;;;;0.40;0.30;;;;;;;5.95;69.94;101077.59;5013357;28;20458;-73
2022/02/25 09:08:03;;;;;;;0.40;0.30;;;;;;;6.03;68.54;101077.94;5013541;28;20444;-71
2022/02/25 09:10:29;;;;;;;0.40;0.30;;;;;;;6.03;68.40;101077.94;5013456;28;20483;-73
2022/02/25 09:12:57;;;;;;;0.40;0.30;;;;;;;6.06;68.85;101081.97;5013365;28;20468;-74
2022/02/25 09:15:26;;;;;;;0.40;0.30;;;;;;;6.18;68.80;101087.16;5013527;28;20451;-74
2022/02/25 09:17:56;;;;;;;0.40;0.20;;;;;;;6.21;67.95;101083.97;5013472;28;20440;-72
2022/02/25 09:20:24;;;;;;;0.40;0.30;;;;;;;6.26;68.31;101092.06;5013324;28;20444;-72
2022/02/25 09:22:51;;;;;;;0.40;0.30;;;;;;;6.25;67.75;101095.84;5013189;28;20463;-72
2022/02/25 09:25:18;;;;;;;0.40;0.30;;;;;;;6.22;67.59;101090.97;5013338;28;20465;-72
2022/02/25 09:27:45;;;;;;;0.40;0.30;;;;;;;6.27;68.25;101097.19;5012973;28;20996;-72
2022/02/25 09:30:15;;;;;;;0.40;0.23;;;;;;;6.42;67.10;101095.66;5013439;28;20901;-71
2022/02/25 09:32:42;;;;;;;0.40;0.30;;;;;;;6.42;66.50;101109.09;5013171;28;20464;-73
2022/02/25 09:35:10;;;;;;;0.40;0.20;;;;;;;6.28;65.95;101090.72;5012883;28;20452;-71
2022/02/25 09:37:37;;;;;;;0.40;0.30;;;;;;;6.36;67.37;101092.13;5012845;28;20522;-72
2022/02/25 09:40:07;;;;;;;0.50;0.37;;;;;;;6.48;65.96;101102.69;5012675;28;20466;-72
2022/02/25 09:42:34;;;;;;;0.40;0.30;;;;;;;6.51;66.10;101088.72;5012930;28;20468;-71
2022/02/25 09:45:01;;;;;;;0.40;0.30;;;;;;;6.50;66.23;101097.84;5012998;28;20447;-71
2022/02/25 09:47:29;;;;;;;0.40;0.30;;;;;;;6.60;65.62;101095.22;5012918;28;20428;-73
2022/02/25 09:49:56;;;;;;;0.40;0.30;;;;;;;6.63;66.15;101110.03;5012903;28;20582;-72
2022/02/25 09:52:23;;;;;;;0.40;0.30;;;;;;;6.73;65.68;101102.00;5014393;28;20439;-72
2022/02/25 09:54:50;;;;;;;0.40;0.30;;;;;;;6.70;65.90;101100.66;5016873;28;20447;-71
2022/02/25 09:57:16;;;;;;;0.40;0.30;;;;;;;6.77;64.92;101106.63;5016355;28;20444;-74
2022/02/25 09:59:43;;;;;;;0.40;0.30;;;;;;;6.82;65.24;101101.25;5016582;28;20435;-73
2022/02/25 10:02:09;;;;;;;0.40;0.30;;;;;;;6.90;65.87;101110.69;5016604;28;20448;-70
2022/02/25 10:04:37;;;;;;;0.40;0.30;;;;;;;7.00;65.38;101108.06;5016686;28;20543;-71
2022/02/25 10:07:24;;;;;;;0.40;0.30;;;;;;;7.16;62.83;101116.97;5016820;28;20450;-72
2022/02/25 10:09:52;;;;;;;0.40;0.30;;;;;;;7.22;63.40;101110.53;5016383;28;20566;-71
2022/02/25 10:12:19;;;;;;;0.40;0.30;;;;;;;7.33;62.86;101122.94;5016603;28;20848;-70
2022/02/25 10:14:47;;;;;;;0.40;0.30;;;;;;;7.36;62.54;101118.13;5016743;28;20572;-70
2022/02/25 10:17:15;;;;;;;0.40;0.30;;;;;;;7.37;62.14;101122.44;5016695;28;20456;-72
2022/02/25 10:19:44;;;;;;;0.40;0.30;;;;;;;7.32;62.21;101123.22;5016342;28;20966;-70
2022/02/25 10:22:23;;;;;;;0.40;0.30;;;;;;;7.30;62.32;101122.66;5016264;28;20439;-72
2022/02/25 10:24:52;;;;;;;0.40;0.20;;;;;;;7.38;63.05;101129.44;5016096;28;20443;-71
2022/02/25 10:27:25;;;;;;;5.37;4.93;;;;;;;7.44;62.79;101128.38;5016354;28;20470;-72
2022/02/25 10:30:01;;;;;;;0.40;0.20;;;;;;;7.38;62.33;101132.13;5016299;28;20467;-71
2022/02/25 10:32:33;;;;;;;0.40;0.30;;;;;;;7.25;62.84;101131.53;5016243;28;20435;-71
2022/02/25 10:35:18;;;;;;;0.40;0.30;;;;;;;7.26;63.27;101126.97;5015886;28;20436;-71
2022/02/25 10:37:54;;;;;;;0.40;0.27;;;;;;;7.32;63.87;101129.41;5016443;28;20432;-72
2022/02/25 10:40:21;;;;;;;0.40;0.30;;;;;;;7.41;62.25;101142.38;5016227;28;20428;-70
2022/02/25 10:42:47;;;;;;;0.40;0.30;;;;;;;7.36;61.78;101136.97;5015692;28;20511;-70
2022/02/25 10:45:27;;;;;;;0.40;0.30;;;;;;;7.33;61.54;101122.94;5016105;28;20448;-70
2022/02/25 10:47:58;;;;;;;0.40;0.30;;;;;;;7.28;62.10;101128.34;5016076;28;20457;-70
2022/02/25 10:50:27;;;;;;;0.40;0.30;;;;;;;7.33;62.62;101125.66;5015782;28;20468;-70
2022/02/25 10:52:54;;;;;;;0.40;0.30;;;;;;;7.31;63.16;101125.13;5015645;28;20563;-69
2022/02/25 10:55:22;;;;;;;0.40;0.30;;;;;;;7.36;61.07;101131.59;5015589;28;20457;-70
2022/02/25 10:57:52;;;;;;;0.40;0.30;;;;;;;7.44;60.81;101133.78;5015453;28;20452;-69
2022/02/25 11:00:20;;;;;;;0.40;0.30;;;;;;;7.47;61.89;101127.84;5015550;28;20441;-72
2022/02/25 11:02:48;;;;;;;0.40;0.27;;;;;;;7.48;61.70;101119.50;5015100;28;20457;-73
2022/02/25 11:05:18;;;;;;;0.40;0.30;;;;;;;7.61;61.74;101123.53;5015852;28;20452;-73
2022/02/25 11:07:48;;;;;;;0.40;0.30;;;;;;;7.74;59.86;101111.41;5015745;28;20479;-76
2022/02/25 11:10:16;;;;;;;0.40;0.30;;;;;;;7.77;60.12;101116.28;5015559;28;20495;-74
2022/02/25 11:12:45;;;;;;;0.40;0.30;;;;;;;7.85;60.84;101107.66;5015612;28;20460;-75
2022/02/25 11:15:15;;;;;;;0.40;0.27;;;;;;;7.93;59.76;101119.81;5015549;28;20448;-69
2022/02/25 11:17:43;;;;;;;0.40;0.30;;;;;;;7.95;58.87;101114.94;5015671;28;20447;-75
2022/02/25 11:20:10;;;;;;;0.40;0.23;;;;;;;8.01;58.23;101116.53;5015328;28;20812;-76
2022/02/25 11:22:39;;;;;;;0.40;0.30;;;;;;;8.03;58.56;101114.41;5015672;28;20534;-76
2022/02/25 11:25:12;;;;;;;0.40;0.30;;;;;;;8.03;58.97;101114.41;5015326;28;20448;-75
2022/02/25 11:27:38;;;;;;;0.40;0.20;;;;;;;8.01;59.89;101128.16;5015265;28;20437;-74
2022/02/25 11:30:08;;;;;;;0.40;0.30;;;;;;;8.01;58.69;101116.53;5014710;28;20948;-75
2022/02/25 11:32:38;;;;;;;0.40;0.30;;;;;;;8.00;58.68;101118.44;5014902;28;20468;-75
2022/02/25 11:35:22;;;;;;;0.40;0.30;;;;;;;7.97;57.91;101131.66;5015137;28;20424;-74
2022/02/25 11:37:51;;;;;;;0.40;0.30;;;;;;;7.86;57.17;101119.25;5014946;28;20468;-74
2022/02/25 11:41:03;;;;;;;0.40;0.30;;;;;;;7.81;57.69;101125.47;5014609;28;20471;-73
2022/02/25 11:43:44;;;;;;;0.40;0.20;;;;;;;7.81;58.25;101137.06;5005043;28;20559;-73
2022/02/25 11:46:13;;;;;;;0.40;0.30;;;;;;;7.74;59.19;101128.41;5014731;28;20490;-74